sensor_id;sensor_type;location;lat;lon;timestamp;P1;durP1;ratioP1;P2;durP2;ratioP2
14472;SDS011;7322;50.872;4.386;2023-08-30T00:02:09;3.05;;;2.70;;
14472;SDS011;7322;50.872;4.386;2023-08-30T00:15:10;4.32;;;2.85;;
14472;SDS011;7322;50.872;4.386;2023-08-30T00:17:38;3.60;;;2.70;;
14472;SDS011;7322;50.872;4.386;2023-08-30T00:20:05;4.35;;;2.78;;
14472;SDS011;7322;50.872;4.386;2023-08-30T00:22:42;2.92;;;2.63;;
14472;SDS011;7322;50.872;4.386;2023-08-30T00:25:16;3.47;;;2.80;;
14472;SDS011;7322;50.872;4.386;2023-08-30T00:27:49;4.38;;;2.97;;
14472;SDS011;7322;50.872;4.386;2023-08-30T00:30:16;2.92;;;2.63;;
14472;SDS011;7322;50.872;4.386;2023-08-30T00:32:44;5.10;;;3.17;;
14472;SDS011;7322;50.872;4.386;2023-08-30T00:37:45;3.40;;;3.10;;
14472;SDS011;7322;50.872;4.386;2023-08-30T00:40:13;3.33;;;2.97;;
14472;SDS011;7322;50.872;4.386;2023-08-30T00:42:40;2.63;;;2.42;;
14472;SDS011;7322;50.872;4.386;2023-08-30T00:45:09;4.72;;;3.08;;
14472;SDS011;7322;50.872;4.386;2023-08-30T00:47:43;3.13;;;2.70;;
14472;SDS011;7322;50.872;4.386;2023-08-30T00:50:10;4.45;;;2.95;;
14472;SDS011;7322;50.872;4.386;2023-08-30T00:52:44;4.45;;;3.10;;
14472;SDS011;7322;50.872;4.386;2023-08-30T00:55:12;3.00;;;2.40;;
14472;SDS011;7322;50.872;4.386;2023-08-30T00:57:42;3.22;;;2.92;;
14472;SDS011;7322;50.872;4.386;2023-08-30T01:00:20;3.90;;;2.63;;
14472;SDS011;7322;50.872;4.386;2023-08-30T01:02:47;4.22;;;2.72;;
14472;SDS011;7322;50.872;4.386;2023-08-30T01:05:15;3.95;;;2.55;;
14472;SDS011;7322;50.872;4.386;2023-08-30T01:10:22;3.15;;;2.80;;
14472;SDS011;7322;50.872;4.386;2023-08-30T01:12:55;4.00;;;2.90;;
14472;SDS011;7322;50.872;4.386;2023-08-30T01:18:11;2.50;;;2.20;;
14472;SDS011;7322;50.872;4.386;2023-08-30T01:20:45;3.08;;;2.70;;
14472;SDS011;7322;50.872;4.386;2023-08-30T01:23:22;3.13;;;2.40;;
14472;SDS011;7322;50.872;4.386;2023-08-30T01:26:03;3.22;;;2.22;;
14472;SDS011;7322;50.872;4.386;2023-08-30T01:28:39;3.25;;;2.80;;
14472;SDS011;7322;50.872;4.386;2023-08-30T01:31:08;3.05;;;2.67;;
14472;SDS011;7322;50.872;4.386;2023-08-30T01:33:38;2.78;;;2.50;;
14472;SDS011;7322;50.872;4.386;2023-08-30T01:36:14;2.67;;;2.28;;
14472;SDS011;7322;50.872;4.386;2023-08-30T01:38:51;2.58;;;2.38;;
14472;SDS011;7322;50.872;4.386;2023-08-30T01:41:22;3.28;;;2.30;;
14472;SDS011;7322;50.872;4.386;2023-08-30T01:46:37;5.10;;;2.42;;
14472;SDS011;7322;50.872;4.386;2023-08-30T01:49:07;2.30;;;2.10;;
14472;SDS011;7322;50.872;4.386;2023-08-30T01:51:49;2.25;;;2.05;;
14472;SDS011;7322;50.872;4.386;2023-08-30T01:54:17;3.10;;;2.55;;
14472;SDS011;7322;50.872;4.386;2023-08-30T01:56:48;4.00;;;2.25;;
14472;SDS011;7322;50.872;4.386;2023-08-30T01:59:20;2.95;;;2.17;;
14472;SDS011;7322;50.872;4.386;2023-08-30T02:01:47;3.42;;;2.30;;
14472;SDS011;7322;50.872;4.386;2023-08-30T02:04:14;2.55;;;2.35;;
14472;SDS011;7322;50.872;4.386;2023-08-30T02:06:48;3.08;;;2.30;;
14472;SDS011;7322;50.872;4.386;2023-08-30T02:09:28;3.47;;;2.20;;
14472;SDS011;7322;50.872;4.386;2023-08-30T02:12:04;2.92;;;1.95;;
14472;SDS011;7322;50.872;4.386;2023-08-30T02:14:37;4.72;;;2.47;;
14472;SDS011;7322;50.872;4.386;2023-08-30T02:17:07;2.65;;;2.30;;
14472;SDS011;7322;50.872;4.386;2023-08-30T02:19:45;2.53;;;2.22;;
14472;SDS011;7322;50.872;4.386;2023-08-30T02:22:15;3.75;;;2.13;;
14472;SDS011;7322;50.872;4.386;2023-08-30T02:24:45;2.78;;;2.30;;
14472;SDS011;7322;50.872;4.386;2023-08-30T02:27:12;2.50;;;2.20;;
14472;SDS011;7322;50.872;4.386;2023-08-30T02:29:46;2.97;;;2.13;;
14472;SDS011;7322;50.872;4.386;2023-08-30T02:34:51;3.08;;;2.10;;
14472;SDS011;7322;50.872;4.386;2023-08-30T02:37:19;3.17;;;2.30;;
14472;SDS011;7322;50.872;4.386;2023-08-30T02:39:47;2.75;;;2.28;;
14472;SDS011;7322;50.872;4.386;2023-08-30T02:42:16;3.58;;;1.40;;
14472;SDS011;7322;50.872;4.386;2023-08-30T02:44:53;3.17;;;2.00;;
14472;SDS011;7322;50.872;4.386;2023-08-30T02:50:08;3.15;;;2.33;;
14472;SDS011;7322;50.872;4.386;2023-08-30T02:52:35;2.35;;;2.00;;
14472;SDS011;7322;50.872;4.386;2023-08-30T02:55:07;2.70;;;2.00;;
14472;SDS011;7322;50.872;4.386;2023-08-30T02:57:36;3.00;;;2.13;;
14472;SDS011;7322;50.872;4.386;2023-08-30T03:00:05;3.60;;;2.13;;
14472;SDS011;7322;50.872;4.386;2023-08-30T03:02:38;2.35;;;1.80;;
14472;SDS011;7322;50.872;4.386;2023-08-30T03:05:07;2.35;;;2.03;;
14472;SDS011;7322;50.872;4.386;2023-08-30T03:07:48;2.30;;;2.10;;
14472;SDS011;7322;50.872;4.386;2023-08-30T03:12:46;3.05;;;1.98;;
14472;SDS011;7322;50.872;4.386;2023-08-30T03:15:14;2.95;;;2.25;;
14472;SDS011;7322;50.872;4.386;2023-08-30T03:17:43;3.47;;;2.55;;
14472;SDS011;7322;50.872;4.386;2023-08-30T03:20:13;2.90;;;2.38;;
14472;SDS011;7322;50.872;4.386;2023-08-30T03:22:48;3.08;;;2.40;;
14472;SDS011;7322;50.872;4.386;2023-08-30T03:25:15;2.47;;;2.22;;
14472;SDS011;7322;50.872;4.386;2023-08-30T03:33:15;3.22;;;2.60;;
14472;SDS011;7322;50.872;4.386;2023-08-30T03:35:44;2.45;;;2.20;;
14472;SDS011;7322;50.872;4.386;2023-08-30T03:38:11;2.78;;;2.22;;
14472;SDS011;7322;50.872;4.386;2023-08-30T03:43:18;3.50;;;2.63;;
14472;SDS011;7322;50.872;4.386;2023-08-30T03:45:48;3.22;;;2.55;;
14472;SDS011;7322;50.872;4.386;2023-08-30T03:48:15;2.67;;;2.10;;
14472;SDS011;7322;50.872;4.386;2023-08-30T03:50:48;6.25;;;3.17;;
14472;SDS011;7322;50.872;4.386;2023-08-30T03:53:18;2.95;;;2.40;;
14472;SDS011;7322;50.872;4.386;2023-08-30T03:55:45;3.08;;;2.50;;
14472;SDS011;7322;50.872;4.386;2023-08-30T04:00:44;3.92;;;2.70;;
14472;SDS011;7322;50.872;4.386;2023-08-30T04:03:20;3.25;;;2.33;;
14472;SDS011;7322;50.872;4.386;2023-08-30T04:05:54;4.50;;;2.70;;
14472;SDS011;7322;50.872;4.386;2023-08-30T04:08:33;4.72;;;2.78;;
14472;SDS011;7322;50.872;4.386;2023-08-30T04:11:06;4.75;;;2.95;;
14472;SDS011;7322;50.872;4.386;2023-08-30T04:13:34;3.95;;;2.78;;
14472;SDS011;7322;50.872;4.386;2023-08-30T04:16:03;5.40;;;3.00;;
14472;SDS011;7322;50.872;4.386;2023-08-30T04:21:08;4.35;;;2.88;;
14472;SDS011;7322;50.872;4.386;2023-08-30T04:23:37;3.88;;;2.75;;
14472;SDS011;7322;50.872;4.386;2023-08-30T04:26:11;5.20;;;3.30;;
14472;SDS011;7322;50.872;4.386;2023-08-30T04:28:45;3.10;;;2.70;;
14472;SDS011;7322;50.872;4.386;2023-08-30T04:31:15;4.10;;;2.80;;
14472;SDS011;7322;50.872;4.386;2023-08-30T04:33:50;3.90;;;2.80;;
14472;SDS011;7322;50.872;4.386;2023-08-30T04:36:38;3.72;;;2.92;;
14472;SDS011;7322;50.872;4.386;2023-08-30T04:39:15;4.80;;;3.25;;
14472;SDS011;7322;50.872;4.386;2023-08-30T04:41:48;4.45;;;3.08;;
14472;SDS011;7322;50.872;4.386;2023-08-30T04:44:14;3.88;;;2.92;;
14472;SDS011;7322;50.872;4.386;2023-08-30T04:46:48;3.22;;;2.30;;
14472;SDS011;7322;50.872;4.386;2023-08-30T04:49:27;3.92;;;2.83;;
14472;SDS011;7322;50.872;4.386;2023-08-30T04:52:11;5.13;;;3.03;;
14472;SDS011;7322;50.872;4.386;2023-08-30T04:54:48;3.17;;;2.70;;
14472;SDS011;7322;50.872;4.386;2023-08-30T04:57:14;5.30;;;2.88;;
14472;SDS011;7322;50.872;4.386;2023-08-30T05:04:55;4.22;;;2.90;;
14472;SDS011;7322;50.872;4.386;2023-08-30T05:07:24;4.25;;;3.40;;
14472;SDS011;7322;50.872;4.386;2023-08-30T05:10:04;4.95;;;2.92;;
14472;SDS011;7322;50.872;4.386;2023-08-30T05:17:53;4.43;;;2.72;;
14472;SDS011;7322;50.872;4.386;2023-08-30T05:20:22;3.10;;;2.50;;
14472;SDS011;7322;50.872;4.386;2023-08-30T05:22:49;4.72;;;2.80;;
14472;SDS011;7322;50.872;4.386;2023-08-30T05:25:18;3.67;;;3.20;;
14472;SDS011;7322;50.872;4.386;2023-08-30T05:27:45;5.15;;;3.38;;
14472;SDS011;7322;50.872;4.386;2023-08-30T05:30:18;6.07;;;3.60;;
14472;SDS011;7322;50.872;4.386;2023-08-30T05:32:47;4.88;;;3.50;;
14472;SDS011;7322;50.872;4.386;2023-08-30T05:40:51;5.47;;;3.45;;
14472;SDS011;7322;50.872;4.386;2023-08-30T05:43:19;7.95;;;3.38;;
14472;SDS011;7322;50.872;4.386;2023-08-30T05:48:49;4.13;;;3.20;;
14472;SDS011;7322;50.872;4.386;2023-08-30T05:51:25;6.55;;;3.40;;
14472;SDS011;7322;50.872;4.386;2023-08-30T05:54:07;5.97;;;3.13;;
14472;SDS011;7322;50.872;4.386;2023-08-30T05:59:19;4.43;;;3.20;;
14472;SDS011;7322;50.872;4.386;2023-08-30T06:01:46;6.75;;;3.40;;
14472;SDS011;7322;50.872;4.386;2023-08-30T06:04:13;4.80;;;3.00;;
14472;SDS011;7322;50.872;4.386;2023-08-30T06:06:49;6.47;;;3.10;;
14472;SDS011;7322;50.872;4.386;2023-08-30T06:09:32;7.28;;;3.05;;
14472;SDS011;7322;50.872;4.386;2023-08-30T06:12:06;9.30;;;3.30;;
14472;SDS011;7322;50.872;4.386;2023-08-30T06:14:48;4.95;;;2.53;;
14472;SDS011;7322;50.872;4.386;2023-08-30T06:17:17;4.63;;;2.45;;
14472;SDS011;7322;50.872;4.386;2023-08-30T06:19:45;4.70;;;2.90;;
14472;SDS011;7322;50.872;4.386;2023-08-30T06:22:20;5.32;;;2.97;;
14472;SDS011;7322;50.872;4.386;2023-08-30T06:24:55;5.47;;;2.83;;
14472;SDS011;7322;50.872;4.386;2023-08-30T06:27:23;4.25;;;2.65;;
14472;SDS011;7322;50.872;4.386;2023-08-30T06:29:52;6.65;;;2.60;;
14472;SDS011;7322;50.872;4.386;2023-08-30T06:32:19;4.07;;;2.72;;
14472;SDS011;7322;50.872;4.386;2023-08-30T06:34:50;5.25;;;2.88;;
14472;SDS011;7322;50.872;4.386;2023-08-30T06:37:17;5.93;;;2.60;;
14472;SDS011;7322;50.872;4.386;2023-08-30T06:39:47;4.20;;;2.53;;
14472;SDS011;7322;50.872;4.386;2023-08-30T06:42:14;5.22;;;2.50;;
14472;SDS011;7322;50.872;4.386;2023-08-30T06:44:42;3.10;;;2.00;;
14472;SDS011;7322;50.872;4.386;2023-08-30T06:47:22;5.38;;;2.75;;
14472;SDS011;7322;50.872;4.386;2023-08-30T06:49:49;10.80;;;3.50;;
14472;SDS011;7322;50.872;4.386;2023-08-30T06:55:04;8.95;;;3.33;;
14472;SDS011;7322;50.872;4.386;2023-08-30T06:57:48;4.35;;;2.63;;
14472;SDS011;7322;50.872;4.386;2023-08-30T07:00:16;4.78;;;2.80;;
14472;SDS011;7322;50.872;4.386;2023-08-30T07:02:50;5.20;;;3.25;;
14472;SDS011;7322;50.872;4.386;2023-08-30T07:05:17;5.30;;;2.97;;
14472;SDS011;7322;50.872;4.386;2023-08-30T07:07:45;5.07;;;2.28;;
14472;SDS011;7322;50.872;4.386;2023-08-30T07:10:32;5.35;;;2.38;;
14472;SDS011;7322;50.872;4.386;2023-08-30T07:15:49;4.43;;;2.60;;
14472;SDS011;7322;50.872;4.386;2023-08-30T07:18:25;4.15;;;2.60;;
14472;SDS011;7322;50.872;4.386;2023-08-30T07:20:53;4.80;;;2.75;;
14472;SDS011;7322;50.872;4.386;2023-08-30T07:26:25;4.15;;;2.55;;
14472;SDS011;7322;50.872;4.386;2023-08-30T07:28:53;4.88;;;2.85;;
14472;SDS011;7322;50.872;4.386;2023-08-30T07:34:48;4.50;;;2.70;;
14472;SDS011;7322;50.872;4.386;2023-08-30T07:37:19;5.80;;;2.88;;
14472;SDS011;7322;50.872;4.386;2023-08-30T07:39:50;4.65;;;2.88;;
14472;SDS011;7322;50.872;4.386;2023-08-30T07:42:27;3.58;;;2.70;;
14472;SDS011;7322;50.872;4.386;2023-08-30T07:44:54;4.63;;;2.78;;
14472;SDS011;7322;50.872;4.386;2023-08-30T07:49:51;4.53;;;2.88;;
14472;SDS011;7322;50.872;4.386;2023-08-30T07:52:31;6.38;;;2.78;;
14472;SDS011;7322;50.872;4.386;2023-08-30T07:55:00;4.75;;;2.90;;
14472;SDS011;7322;50.872;4.386;2023-08-30T07:57:32;3.80;;;2.35;;
14472;SDS011;7322;50.872;4.386;2023-08-30T08:03:01;4.80;;;2.55;;
14472;SDS011;7322;50.872;4.386;2023-08-30T08:05:31;4.72;;;3.03;;
14472;SDS011;7322;50.872;4.386;2023-08-30T08:10:46;4.88;;;2.80;;
14472;SDS011;7322;50.872;4.386;2023-08-30T08:16:01;4.45;;;2.67;;
14472;SDS011;7322;50.872;4.386;2023-08-30T08:21:24;3.58;;;2.60;;
14472;SDS011;7322;50.872;4.386;2023-08-30T08:27:15;4.63;;;2.95;;
14472;SDS011;7322;50.872;4.386;2023-08-30T08:29:44;4.28;;;2.90;;
14472;SDS011;7322;50.872;4.386;2023-08-30T08:34:43;6.25;;;2.95;;
14472;SDS011;7322;50.872;4.386;2023-08-30T08:37:15;3.83;;;2.50;;
14472;SDS011;7322;50.872;4.386;2023-08-30T08:39:44;6.18;;;2.67;;
14472;SDS011;7322;50.872;4.386;2023-08-30T08:42:17;4.38;;;2.80;;
14472;SDS011;7322;50.872;4.386;2023-08-30T08:44:47;3.92;;;2.40;;
14472;SDS011;7322;50.872;4.386;2023-08-30T08:50:12;3.78;;;2.50;;
14472;SDS011;7322;50.872;4.386;2023-08-30T08:52:40;10.00;;;3.03;;
14472;SDS011;7322;50.872;4.386;2023-08-30T08:55:19;5.70;;;2.85;;
14472;SDS011;7322;50.872;4.386;2023-08-30T09:01:00;5.57;;;2.40;;
14472;SDS011;7322;50.872;4.386;2023-08-30T09:03:33;5.45;;;2.38;;
14472;SDS011;7322;50.872;4.386;2023-08-30T09:06:01;3.92;;;2.50;;
14472;SDS011;7322;50.872;4.386;2023-08-30T09:08:31;5.13;;;2.53;;
14472;SDS011;7322;50.872;4.386;2023-08-30T09:10:58;4.35;;;2.40;;
14472;SDS011;7322;50.872;4.386;2023-08-30T09:21:59;2.72;;;2.45;;
14472;SDS011;7322;50.872;4.386;2023-08-30T09:33:04;7.53;;;2.60;;
14472;SDS011;7322;50.872;4.386;2023-08-30T09:35:47;3.20;;;2.53;;
14472;SDS011;7322;50.872;4.386;2023-08-30T09:38:17;4.57;;;2.47;;
14472;SDS011;7322;50.872;4.386;2023-08-30T09:43:45;7.10;;;2.33;;
14472;SDS011;7322;50.872;4.386;2023-08-30T09:46:14;5.15;;;2.50;;
14472;SDS011;7322;50.872;4.386;2023-08-30T09:48:54;7.80;;;3.25;;
14472;SDS011;7322;50.872;4.386;2023-08-30T09:57:20;5.68;;;3.22;;
14472;SDS011;7322;50.872;4.386;2023-08-30T09:59:48;4.70;;;3.13;;
14472;SDS011;7322;50.872;4.386;2023-08-30T10:05:24;7.55;;;2.90;;
14472;SDS011;7322;50.872;4.386;2023-08-30T10:10:49;7.47;;;3.10;;
14472;SDS011;7322;50.872;4.386;2023-08-30T10:13:25;15.63;;;4.57;;
14472;SDS011;7322;50.872;4.386;2023-08-30T10:16:00;5.93;;;3.45;;
14472;SDS011;7322;50.872;4.386;2023-08-30T10:18:46;5.05;;;2.80;;
14472;SDS011;7322;50.872;4.386;2023-08-30T10:24:17;4.25;;;2.80;;
14472;SDS011;7322;50.872;4.386;2023-08-30T10:26:58;4.57;;;2.90;;
14472;SDS011;7322;50.872;4.386;2023-08-30T10:29:37;3.88;;;3.00;;
14472;SDS011;7322;50.872;4.386;2023-08-30T10:32:06;5.05;;;3.25;;
14472;SDS011;7322;50.872;4.386;2023-08-30T10:34:47;4.75;;;2.60;;
14472;SDS011;7322;50.872;4.386;2023-08-30T10:42:40;10.05;;;3.72;;
14472;SDS011;7322;50.872;4.386;2023-08-30T10:45:07;3.45;;;3.10;;
14472;SDS011;7322;50.872;4.386;2023-08-30T10:47:37;6.10;;;3.20;;
14472;SDS011;7322;50.872;4.386;2023-08-30T10:50:19;19.45;;;5.63;;
14472;SDS011;7322;50.872;4.386;2023-08-30T11:01:16;9.07;;;4.10;;
14472;SDS011;7322;50.872;4.386;2023-08-30T11:03:45;21.92;;;5.70;;
14472;SDS011;7322;50.872;4.386;2023-08-30T11:06:20;10.00;;;3.97;;
14472;SDS011;7322;50.872;4.386;2023-08-30T11:08:50;8.40;;;3.85;;
14472;SDS011;7322;50.872;4.386;2023-08-30T11:11:17;6.07;;;3.60;;
14472;SDS011;7322;50.872;4.386;2023-08-30T11:13:47;5.85;;;2.85;;
14472;SDS011;7322;50.872;4.386;2023-08-30T11:19:19;4.30;;;2.67;;
14472;SDS011;7322;50.872;4.386;2023-08-30T11:24:43;4.47;;;3.25;;
14472;SDS011;7322;50.872;4.386;2023-08-30T11:29:44;3.40;;;2.90;;
14472;SDS011;7322;50.872;4.386;2023-08-30T11:32:12;5.03;;;2.83;;
14472;SDS011;7322;50.872;4.386;2023-08-30T11:37:29;3.78;;;2.70;;
14472;SDS011;7322;50.872;4.386;2023-08-30T11:42:57;4.50;;;2.70;;
14472;SDS011;7322;50.872;4.386;2023-08-30T11:45:32;4.05;;;2.50;;
14472;SDS011;7322;50.872;4.386;2023-08-30T11:48:05;5.07;;;2.63;;
14472;SDS011;7322;50.872;4.386;2023-08-30T11:50:49;5.43;;;2.35;;
14472;SDS011;7322;50.872;4.386;2023-08-30T11:53:17;6.28;;;2.53;;
14472;SDS011;7322;50.872;4.386;2023-08-30T11:55:46;7.43;;;2.55;;
14472;SDS011;7322;50.872;4.386;2023-08-30T11:58:23;5.32;;;2.33;;
14472;SDS011;7322;50.872;4.386;2023-08-30T12:03:27;4.40;;;2.20;;
14472;SDS011;7322;50.872;4.386;2023-08-30T12:08:56;5.40;;;2.63;;
14472;SDS011;7322;50.872;4.386;2023-08-30T12:11:35;4.30;;;2.08;;
14472;SDS011;7322;50.872;4.386;2023-08-30T12:14:02;4.70;;;2.40;;
14472;SDS011;7322;50.872;4.386;2023-08-30T12:16:33;5.88;;;2.42;;
14472;SDS011;7322;50.872;4.386;2023-08-30T12:22:06;4.20;;;2.38;;
14472;SDS011;7322;50.872;4.386;2023-08-30T12:24:49;5.60;;;2.30;;
14472;SDS011;7322;50.872;4.386;2023-08-30T12:27:21;6.65;;;2.03;;
14472;SDS011;7322;50.872;4.386;2023-08-30T12:29:48;4.00;;;2.25;;
14472;SDS011;7322;50.872;4.386;2023-08-30T12:32:15;8.13;;;2.25;;
14472;SDS011;7322;50.872;4.386;2023-08-30T12:34:45;6.72;;;2.60;;
14472;SDS011;7322;50.872;4.386;2023-08-30T12:37:19;5.72;;;2.30;;
14472;SDS011;7322;50.872;4.386;2023-08-30T12:40:02;7.00;;;2.53;;
14472;SDS011;7322;50.872;4.386;2023-08-30T12:42:34;6.45;;;2.20;;
14472;SDS011;7322;50.872;4.386;2023-08-30T12:45:09;4.72;;;1.80;;
14472;SDS011;7322;50.872;4.386;2023-08-30T12:47:42;6.03;;;2.20;;
14472;SDS011;7322;50.872;4.386;2023-08-30T12:50:15;5.63;;;2.05;;
14472;SDS011;7322;50.872;4.386;2023-08-30T12:52:49;3.95;;;1.88;;
14472;SDS011;7322;50.872;4.386;2023-08-30T12:55:20;7.25;;;2.28;;
14472;SDS011;7322;50.872;4.386;2023-08-30T12:57:48;5.60;;;2.38;;
14472;SDS011;7322;50.872;4.386;2023-08-30T13:00:16;6.97;;;2.38;;
14472;SDS011;7322;50.872;4.386;2023-08-30T13:05:14;4.03;;;2.10;;
14472;SDS011;7322;50.872;4.386;2023-08-30T13:07:42;5.32;;;2.00;;
14472;SDS011;7322;50.872;4.386;2023-08-30T13:10:15;6.15;;;2.17;;
14472;SDS011;7322;50.872;4.386;2023-08-30T13:12:50;4.85;;;1.92;;
14472;SDS011;7322;50.872;4.386;2023-08-30T13:15:17;6.35;;;2.33;;
14472;SDS011;7322;50.872;4.386;2023-08-30T13:17:45;6.68;;;1.88;;
14472;SDS011;7322;50.872;4.386;2023-08-30T13:20:12;3.75;;;1.92;;
14472;SDS011;7322;50.872;4.386;2023-08-30T13:22:41;3.90;;;1.92;;
14472;SDS011;7322;50.872;4.386;2023-08-30T13:25:10;7.28;;;2.10;;
14472;SDS011;7322;50.872;4.386;2023-08-30T13:27:43;5.68;;;1.98;;
14472;SDS011;7322;50.872;4.386;2023-08-30T13:30:13;4.82;;;1.98;;
14472;SDS011;7322;50.872;4.386;2023-08-30T13:35:12;3.45;;;1.88;;
14472;SDS011;7322;50.872;4.386;2023-08-30T13:40:11;6.40;;;1.95;;
14472;SDS011;7322;50.872;4.386;2023-08-30T13:42:38;4.63;;;1.58;;
14472;SDS011;7322;50.872;4.386;2023-08-30T13:45:06;3.60;;;1.65;;
14472;SDS011;7322;50.872;4.386;2023-08-30T13:47:36;5.20;;;1.95;;
14472;SDS011;7322;50.872;4.386;2023-08-30T13:50:03;3.25;;;1.55;;
14472;SDS011;7322;50.872;4.386;2023-08-30T13:52:32;5.55;;;2.15;;
14472;SDS011;7322;50.872;4.386;2023-08-30T13:55:06;4.55;;;1.75;;
14472;SDS011;7322;50.872;4.386;2023-08-30T14:00:13;6.18;;;2.00;;
14472;SDS011;7322;50.872;4.386;2023-08-30T14:02:42;2.95;;;1.90;;
14472;SDS011;7322;50.872;4.386;2023-08-30T14:05:09;3.60;;;1.83;;
14472;SDS011;7322;50.872;4.386;2023-08-30T14:07:43;5.22;;;2.15;;
14472;SDS011;7322;50.872;4.386;2023-08-30T14:10:12;4.65;;;2.00;;
14472;SDS011;7322;50.872;4.386;2023-08-30T14:12:44;5.85;;;2.17;;
14472;SDS011;7322;50.872;4.386;2023-08-30T14:15:13;7.32;;;2.42;;
14472;SDS011;7322;50.872;4.386;2023-08-30T14:17:42;7.90;;;2.22;;
14472;SDS011;7322;50.872;4.386;2023-08-30T14:20:09;6.10;;;1.95;;
14472;SDS011;7322;50.872;4.386;2023-08-30T14:22:37;5.15;;;2.10;;
14472;SDS011;7322;50.872;4.386;2023-08-30T14:25:05;4.80;;;1.60;;
14472;SDS011;7322;50.872;4.386;2023-08-30T14:27:33;4.43;;;1.73;;
14472;SDS011;7322;50.872;4.386;2023-08-30T14:30:00;6.93;;;2.05;;
14472;SDS011;7322;50.872;4.386;2023-08-30T14:32:27;6.07;;;1.88;;
14472;SDS011;7322;50.872;4.386;2023-08-30T14:34:55;3.40;;;1.60;;
14472;SDS011;7322;50.872;4.386;2023-08-30T14:37:22;4.47;;;2.00;;
14472;SDS011;7322;50.872;4.386;2023-08-30T14:39:50;3.75;;;1.60;;
14472;SDS011;7322;50.872;4.386;2023-08-30T14:42:19;5.63;;;1.90;;
14472;SDS011;7322;50.872;4.386;2023-08-30T14:44:48;6.10;;;1.70;;
14472;SDS011;7322;50.872;4.386;2023-08-30T14:47:16;5.50;;;1.80;;
14472;SDS011;7322;50.872;4.386;2023-08-30T14:49:44;5.10;;;1.80;;
14472;SDS011;7322;50.872;4.386;2023-08-30T14:52:13;3.58;;;1.63;;
14472;SDS011;7322;50.872;4.386;2023-08-30T14:54:41;5.30;;;1.65;;
14472;SDS011;7322;50.872;4.386;2023-08-30T14:57:08;3.05;;;1.77;;
14472;SDS011;7322;50.872;4.386;2023-08-30T14:59:37;4.15;;;1.50;;
14472;SDS011;7322;50.872;4.386;2023-08-30T15:02:05;3.30;;;1.50;;
14472;SDS011;7322;50.872;4.386;2023-08-30T15:04:32;3.33;;;1.42;;
14472;SDS011;7322;50.872;4.386;2023-08-30T15:06:59;4.18;;;1.60;;
14472;SDS011;7322;50.872;4.386;2023-08-30T15:09:31;3.72;;;1.50;;
14472;SDS011;7322;50.872;4.386;2023-08-30T15:12:01;5.72;;;1.80;;
14472;SDS011;7322;50.872;4.386;2023-08-30T15:14:37;3.47;;;1.58;;
14472;SDS011;7322;50.872;4.386;2023-08-30T15:17:07;6.05;;;1.65;;
14472;SDS011;7322;50.872;4.386;2023-08-30T15:19:36;4.78;;;1.67;;
14472;SDS011;7322;50.872;4.386;2023-08-30T15:22:04;5.30;;;1.55;;
14472;SDS011;7322;50.872;4.386;2023-08-30T15:24:40;3.45;;;1.50;;
14472;SDS011;7322;50.872;4.386;2023-08-30T15:27:08;3.20;;;1.55;;
14472;SDS011;7322;50.872;4.386;2023-08-30T15:29:49;3.80;;;1.63;;
14472;SDS011;7322;50.872;4.386;2023-08-30T15:32:19;3.00;;;1.40;;
14472;SDS011;7322;50.872;4.386;2023-08-30T15:37:16;2.30;;;1.40;;
14472;SDS011;7322;50.872;4.386;2023-08-30T15:39:45;3.15;;;1.60;;
14472;SDS011;7322;50.872;4.386;2023-08-30T15:42:12;5.72;;;1.60;;
14472;SDS011;7322;50.872;4.386;2023-08-30T15:44:45;2.60;;;1.30;;
14472;SDS011;7322;50.872;4.386;2023-08-30T15:47:13;3.08;;;1.40;;
14472;SDS011;7322;50.872;4.386;2023-08-30T15:49:39;4.22;;;1.88;;
14472;SDS011;7322;50.872;4.386;2023-08-30T15:52:09;3.50;;;2.00;;
14472;SDS011;7322;50.872;4.386;2023-08-30T15:54:36;7.55;;;3.17;;
14472;SDS011;7322;50.872;4.386;2023-08-30T15:57:05;9.02;;;3.65;;
14472;SDS011;7322;50.872;4.386;2023-08-30T15:59:32;7.65;;;3.33;;
14472;SDS011;7322;50.872;4.386;2023-08-30T16:01:59;5.32;;;3.20;;
14472;SDS011;7322;50.872;4.386;2023-08-30T16:04:26;5.80;;;3.45;;
14472;SDS011;7322;50.872;4.386;2023-08-30T16:06:54;6.68;;;3.10;;
14472;SDS011;7322;50.872;4.386;2023-08-30T16:09:21;5.60;;;3.20;;
14472;SDS011;7322;50.872;4.386;2023-08-30T16:11:49;5.35;;;2.65;;
14472;SDS011;7322;50.872;4.386;2023-08-30T16:14:18;6.03;;;2.33;;
14472;SDS011;7322;50.872;4.386;2023-08-30T16:16:45;4.15;;;2.22;;
14472;SDS011;7322;50.872;4.386;2023-08-30T16:19:13;3.88;;;1.83;;
14472;SDS011;7322;50.872;4.386;2023-08-30T16:21:40;5.18;;;2.00;;
14472;SDS011;7322;50.872;4.386;2023-08-30T16:24:07;4.07;;;1.85;;
14472;SDS011;7322;50.872;4.386;2023-08-30T16:26:35;4.30;;;2.03;;
14472;SDS011;7322;50.872;4.386;2023-08-30T16:29:02;4.05;;;1.50;;
14472;SDS011;7322;50.872;4.386;2023-08-30T16:31:31;3.22;;;1.38;;
14472;SDS011;7322;50.872;4.386;2023-08-30T16:33:58;3.28;;;1.52;;
14472;SDS011;7322;50.872;4.386;2023-08-30T16:36:26;4.43;;;1.65;;
14472;SDS011;7322;50.872;4.386;2023-08-30T16:38:53;4.80;;;1.92;;
14472;SDS011;7322;50.872;4.386;2023-08-30T16:41:20;3.78;;;1.85;;
14472;SDS011;7322;50.872;4.386;2023-08-30T16:43:48;4.35;;;1.63;;
14472;SDS011;7322;50.872;4.386;2023-08-30T16:46:17;4.80;;;1.63;;
14472;SDS011;7322;50.872;4.386;2023-08-30T16:48:46;4.03;;;1.50;;
14472;SDS011;7322;50.872;4.386;2023-08-30T16:51:13;7.15;;;1.60;;
14472;SDS011;7322;50.872;4.386;2023-08-30T16:56:11;5.45;;;1.50;;
14472;SDS011;7322;50.872;4.386;2023-08-30T16:58:43;5.20;;;1.52;;
14472;SDS011;7322;50.872;4.386;2023-08-30T17:01:11;3.22;;;1.38;;
14472;SDS011;7322;50.872;4.386;2023-08-30T17:03:47;3.42;;;1.48;;
14472;SDS011;7322;50.872;4.386;2023-08-30T17:06:17;3.75;;;1.50;;
14472;SDS011;7322;50.872;4.386;2023-08-30T17:09:02;5.30;;;1.50;;
14472;SDS011;7322;50.872;4.386;2023-08-30T17:11:31;2.80;;;1.40;;
14472;SDS011;7322;50.872;4.386;2023-08-30T17:14:01;3.45;;;1.65;;
14472;SDS011;7322;50.872;4.386;2023-08-30T17:16:28;4.03;;;1.73;;
14472;SDS011;7322;50.872;4.386;2023-08-30T17:21:59;4.57;;;1.63;;
14472;SDS011;7322;50.872;4.386;2023-08-30T17:36:59;7.63;;;1.77;;
14472;SDS011;7322;50.872;4.386;2023-08-30T17:39:32;7.88;;;1.80;;
14472;SDS011;7322;50.872;4.386;2023-08-30T17:42:14;5.47;;;1.60;;
14472;SDS011;7322;50.872;4.386;2023-08-30T17:44:55;4.18;;;2.00;;
14472;SDS011;7322;50.872;4.386;2023-08-30T17:47:31;3.45;;;1.60;;
14472;SDS011;7322;50.872;4.386;2023-08-30T17:50:14;4.78;;;1.55;;
14472;SDS011;7322;50.872;4.386;2023-08-30T17:52:45;3.03;;;1.70;;
14472;SDS011;7322;50.872;4.386;2023-08-30T18:01:06;4.78;;;1.90;;
14472;SDS011;7322;50.872;4.386;2023-08-30T18:03:40;4.28;;;1.58;;
14472;SDS011;7322;50.872;4.386;2023-08-30T18:06:08;4.63;;;1.90;;
14472;SDS011;7322;50.872;4.386;2023-08-30T18:08:46;3.90;;;1.90;;
14472;SDS011;7322;50.872;4.386;2023-08-30T18:11:21;5.47;;;2.20;;
14472;SDS011;7322;50.872;4.386;2023-08-30T18:13:49;4.85;;;1.85;;
14472;SDS011;7322;50.872;4.386;2023-08-30T18:16:18;3.95;;;1.73;;
14472;SDS011;7322;50.872;4.386;2023-08-30T18:18:52;5.65;;;2.03;;
14472;SDS011;7322;50.872;4.386;2023-08-30T18:21:21;4.88;;;2.20;;
14472;SDS011;7322;50.872;4.386;2023-08-30T18:26:43;3.95;;;2.10;;
14472;SDS011;7322;50.872;4.386;2023-08-30T18:29:11;3.65;;;2.03;;
14472;SDS011;7322;50.872;4.386;2023-08-30T18:31:39;3.90;;;2.10;;
14472;SDS011;7322;50.872;4.386;2023-08-30T18:34:19;6.82;;;2.53;;
14472;SDS011;7322;50.872;4.386;2023-08-30T18:36:46;4.60;;;2.60;;
14472;SDS011;7322;50.872;4.386;2023-08-30T18:39:16;4.68;;;2.35;;
14472;SDS011;7322;50.872;4.386;2023-08-30T18:47:10;5.55;;;2.63;;
14472;SDS011;7322;50.872;4.386;2023-08-30T18:49:58;5.18;;;2.97;;
14472;SDS011;7322;50.872;4.386;2023-08-30T18:52:36;5.03;;;2.97;;
14472;SDS011;7322;50.872;4.386;2023-08-30T18:57:55;5.55;;;2.80;;
14472;SDS011;7322;50.872;4.386;2023-08-30T19:00:26;9.45;;;2.95;;
14472;SDS011;7322;50.872;4.386;2023-08-30T19:02:54;4.85;;;2.80;;
14472;SDS011;7322;50.872;4.386;2023-08-30T19:05:21;4.10;;;2.50;;